sensor_id;sensor_type;location;lat;lon;timestamp;P1;durP1;ratioP1;P2;durP2;ratioP2
10154;SDS011;5118;48.570;7.916;2023-08-31T00:00:32;5.33;;;4.77;;
10154;SDS011;5118;48.570;7.916;2023-08-31T00:03:00;7.00;;;4.50;;
10154;SDS011;5118;48.570;7.916;2023-08-31T00:05:29;5.40;;;4.70;;
10154;SDS011;5118;48.570;7.916;2023-08-31T00:07:58;6.40;;;4.97;;
10154;SDS011;5118;48.570;7.916;2023-08-31T00:10:27;9.00;;;5.23;;
10154;SDS011;5118;48.570;7.916;2023-08-31T00:12:57;6.17;;;4.83;;
10154;SDS011;5118;48.570;7.916;2023-08-31T00:15:26;6.87;;;5.40;;
10154;SDS011;5118;48.570;7.916;2023-08-31T00:17:55;7.10;;;5.33;;
10154;SDS011;5118;48.570;7.916;2023-08-31T00:20:25;7.60;;;5.70;;
10154;SDS011;5118;48.570;7.916;2023-08-31T00:22:56;7.40;;;5.47;;
10154;SDS011;5118;48.570;7.916;2023-08-31T00:25:25;9.63;;;6.20;;
10154;SDS011;5118;48.570;7.916;2023-08-31T00:27:55;6.57;;;5.80;;
10154;SDS011;5118;48.570;7.916;2023-08-31T00:30:25;8.07;;;5.80;;
10154;SDS011;5118;48.570;7.916;2023-08-31T00:32:56;8.43;;;6.10;;
10154;SDS011;5118;48.570;7.916;2023-08-31T00:35:27;8.23;;;6.10;;
10154;SDS011;5118;48.570;7.916;2023-08-31T00:37:56;7.17;;;6.07;;
10154;SDS011;5118;48.570;7.916;2023-08-31T00:40:25;8.83;;;7.13;;
10154;SDS011;5118;48.570;7.916;2023-08-31T00:42:56;7.23;;;6.47;;
10154;SDS011;5118;48.570;7.916;2023-08-31T00:45:26;7.10;;;6.10;;
10154;SDS011;5118;48.570;7.916;2023-08-31T00:47:55;7.97;;;6.40;;
10154;SDS011;5118;48.570;7.916;2023-08-31T00:50:25;8.17;;;6.43;;
10154;SDS011;5118;48.570;7.916;2023-08-31T00:52:54;9.00;;;6.00;;
10154;SDS011;5118;48.570;7.916;2023-08-31T00:55:23;7.13;;;5.83;;
10154;SDS011;5118;48.570;7.916;2023-08-31T00:57:53;7.87;;;5.30;;
10154;SDS011;5118;48.570;7.916;2023-08-31T01:00:22;7.43;;;5.53;;
10154;SDS011;5118;48.570;7.916;2023-08-31T01:03:01;7.20;;;4.90;;
10154;SDS011;5118;48.570;7.916;2023-08-31T01:05:39;8.23;;;5.10;;
10154;SDS011;5118;48.570;7.916;2023-08-31T01:08:22;5.57;;;4.67;;
10154;SDS011;5118;48.570;7.916;2023-08-31T01:11:00;6.63;;;4.87;;
10154;SDS011;5118;48.570;7.916;2023-08-31T01:13:44;5.50;;;4.60;;
10154;SDS011;5118;48.570;7.916;2023-08-31T01:16:25;6.03;;;4.23;;
10154;SDS011;5118;48.570;7.916;2023-08-31T01:18:55;5.60;;;4.23;;
10154;SDS011;5118;48.570;7.916;2023-08-31T01:21:50;5.93;;;4.60;;
10154;SDS011;5118;48.570;7.916;2023-08-31T01:24:24;5.80;;;4.10;;
10154;SDS011;5118;48.570;7.916;2023-08-31T01:26:55;6.33;;;4.60;;
10154;SDS011;5118;48.570;7.916;2023-08-31T01:29:25;5.40;;;4.30;;
10154;SDS011;5118;48.570;7.916;2023-08-31T01:31:54;4.47;;;3.87;;
10154;SDS011;5118;48.570;7.916;2023-08-31T01:34:24;5.57;;;4.40;;
10154;SDS011;5118;48.570;7.916;2023-08-31T01:36:58;7.00;;;3.90;;
10154;SDS011;5118;48.570;7.916;2023-08-31T01:39:32;5.20;;;4.27;;
10154;SDS011;5118;48.570;7.916;2023-08-31T01:42:06;6.50;;;3.90;;
10154;SDS011;5118;48.570;7.916;2023-08-31T01:44:36;6.03;;;4.27;;
10154;SDS011;5118;48.570;7.916;2023-08-31T01:47:05;4.97;;;3.97;;
10154;SDS011;5118;48.570;7.916;2023-08-31T01:49:38;6.83;;;3.90;;
10154;SDS011;5118;48.570;7.916;2023-08-31T01:52:07;5.10;;;3.80;;
10154;SDS011;5118;48.570;7.916;2023-08-31T01:54:40;5.13;;;4.00;;
10154;SDS011;5118;48.570;7.916;2023-08-31T01:57:10;7.03;;;4.40;;
10154;SDS011;5118;48.570;7.916;2023-08-31T01:59:58;6.43;;;4.30;;
10154;SDS011;5118;48.570;7.916;2023-08-31T02:02:42;4.90;;;4.27;;
10154;SDS011;5118;48.570;7.916;2023-08-31T02:05:14;5.87;;;4.40;;
10154;SDS011;5118;48.570;7.916;2023-08-31T02:07:52;7.03;;;4.47;;
10154;SDS011;5118;48.570;7.916;2023-08-31T02:10:44;5.07;;;4.57;;
10154;SDS011;5118;48.570;7.916;2023-08-31T02:14:29;7.97;;;4.90;;
10154;SDS011;5118;48.570;7.916;2023-08-31T02:22:50;6.17;;;4.80;;
10154;SDS011;5118;48.570;7.916;2023-08-31T02:25:39;5.07;;;4.53;;
10154;SDS011;5118;48.570;7.916;2023-08-31T02:28:15;4.97;;;4.47;;
10154;SDS011;5118;48.570;7.916;2023-08-31T02:30:46;5.33;;;4.50;;
10154;SDS011;5118;48.570;7.916;2023-08-31T02:34:03;5.70;;;4.20;;
10154;SDS011;5118;48.570;7.916;2023-08-31T02:36:38;4.77;;;4.27;;
10154;SDS011;5118;48.570;7.916;2023-08-31T02:39:09;7.67;;;4.47;;
10154;SDS011;5118;48.570;7.916;2023-08-31T02:41:42;7.17;;;4.77;;
10154;SDS011;5118;48.570;7.916;2023-08-31T02:44:12;6.77;;;4.50;;
10154;SDS011;5118;48.570;7.916;2023-08-31T02:46:41;8.33;;;4.47;;
10154;SDS011;5118;48.570;7.916;2023-08-31T02:49:28;6.77;;;4.50;;
10154;SDS011;5118;48.570;7.916;2023-08-31T02:51:57;5.63;;;4.50;;
10154;SDS011;5118;48.570;7.916;2023-08-31T02:54:55;6.43;;;4.83;;
10154;SDS011;5118;48.570;7.916;2023-08-31T02:57:24;7.20;;;4.70;;
10154;SDS011;5118;48.570;7.916;2023-08-31T02:59:54;7.23;;;4.90;;
10154;SDS011;5118;48.570;7.916;2023-08-31T03:02:26;5.70;;;5.10;;
10154;SDS011;5118;48.570;7.916;2023-08-31T03:04:55;5.57;;;4.83;;
10154;SDS011;5118;48.570;7.916;2023-08-31T03:07:58;6.33;;;4.67;;
10154;SDS011;5118;48.570;7.916;2023-08-31T03:10:32;6.30;;;4.80;;
10154;SDS011;5118;48.570;7.916;2023-08-31T03:13:12;8.40;;;6.23;;
10154;SDS011;5118;48.570;7.916;2023-08-31T03:15:43;6.63;;;5.20;;
10154;SDS011;5118;48.570;7.916;2023-08-31T03:18:13;5.80;;;4.87;;
10154;SDS011;5118;48.570;7.916;2023-08-31T03:20:43;5.97;;;4.83;;
10154;SDS011;5118;48.570;7.916;2023-08-31T03:23:11;5.20;;;4.70;;
10154;SDS011;5118;48.570;7.916;2023-08-31T03:25:42;6.10;;;4.60;;
10154;SDS011;5118;48.570;7.916;2023-08-31T03:28:11;6.53;;;5.00;;
10154;SDS011;5118;48.570;7.916;2023-08-31T03:30:40;6.70;;;5.00;;
10154;SDS011;5118;48.570;7.916;2023-08-31T03:33:12;5.30;;;4.40;;
10154;SDS011;5118;48.570;7.916;2023-08-31T03:35:41;5.70;;;4.70;;
10154;SDS011;5118;48.570;7.916;2023-08-31T03:38:10;7.93;;;5.30;;
10154;SDS011;5118;48.570;7.916;2023-08-31T03:40:40;5.43;;;4.93;;
10154;SDS011;5118;48.570;7.916;2023-08-31T03:43:09;7.77;;;6.00;;
10154;SDS011;5118;48.570;7.916;2023-08-31T03:45:38;6.27;;;5.60;;
10154;SDS011;5118;48.570;7.916;2023-08-31T03:48:09;5.67;;;5.17;;
10154;SDS011;5118;48.570;7.916;2023-08-31T03:50:37;8.23;;;5.50;;
10154;SDS011;5118;48.570;7.916;2023-08-31T03:53:06;5.70;;;4.93;;
10154;SDS011;5118;48.570;7.916;2023-08-31T03:55:36;5.23;;;4.73;;
10154;SDS011;5118;48.570;7.916;2023-08-31T03:58:05;5.80;;;5.00;;
10154;SDS011;5118;48.570;7.916;2023-08-31T04:00:34;7.97;;;5.17;;
10154;SDS011;5118;48.570;7.916;2023-08-31T04:03:10;7.27;;;5.27;;
10154;SDS011;5118;48.570;7.916;2023-08-31T04:05:39;7.30;;;5.10;;
10154;SDS011;5118;48.570;7.916;2023-08-31T04:12:04;6.37;;;4.67;;
10154;SDS011;5118;48.570;7.916;2023-08-31T04:14:34;5.50;;;4.97;;
10154;SDS011;5118;48.570;7.916;2023-08-31T04:17:06;5.27;;;4.70;;
10154;SDS011;5118;48.570;7.916;2023-08-31T04:20:15;5.77;;;4.30;;
10154;SDS011;5118;48.570;7.916;2023-08-31T04:22:44;5.27;;;4.20;;
10154;SDS011;5118;48.570;7.916;2023-08-31T04:25:13;8.03;;;4.53;;
10154;SDS011;5118;48.570;7.916;2023-08-31T04:27:42;6.37;;;4.47;;
10154;SDS011;5118;48.570;7.916;2023-08-31T04:30:15;7.67;;;4.03;;
10154;SDS011;5118;48.570;7.916;2023-08-31T04:32:53;6.80;;;4.10;;
10154;SDS011;5118;48.570;7.916;2023-08-31T04:38:25;6.13;;;4.23;;
10154;SDS011;5118;48.570;7.916;2023-08-31T04:40:58;5.13;;;4.30;;
10154;SDS011;5118;48.570;7.916;2023-08-31T04:43:27;7.93;;;4.77;;
10154;SDS011;5118;48.570;7.916;2023-08-31T04:45:56;7.23;;;4.37;;
10154;SDS011;5118;48.570;7.916;2023-08-31T04:48:26;5.77;;;4.43;;
10154;SDS011;5118;48.570;7.916;2023-08-31T04:50:56;5.80;;;4.27;;
10154;SDS011;5118;48.570;7.916;2023-08-31T04:53:25;6.80;;;4.73;;
10154;SDS011;5118;48.570;7.916;2023-08-31T04:55:56;5.37;;;4.83;;
10154;SDS011;5118;48.570;7.916;2023-08-31T04:58:28;7.87;;;4.93;;
10154;SDS011;5118;48.570;7.916;2023-08-31T05:00:56;5.70;;;4.90;;
10154;SDS011;5118;48.570;7.916;2023-08-31T05:03:25;8.80;;;5.10;;
10154;SDS011;5118;48.570;7.916;2023-08-31T05:05:54;4.93;;;4.43;;
10154;SDS011;5118;48.570;7.916;2023-08-31T05:08:25;5.27;;;4.77;;
10154;SDS011;5118;48.570;7.916;2023-08-31T05:10:54;5.27;;;4.60;;
10154;SDS011;5118;48.570;7.916;2023-08-31T05:13:26;7.00;;;4.90;;
10154;SDS011;5118;48.570;7.916;2023-08-31T05:15:58;5.43;;;5.00;;
10154;SDS011;5118;48.570;7.916;2023-08-31T05:18:30;6.40;;;4.80;;
10154;SDS011;5118;48.570;7.916;2023-08-31T05:21:00;5.00;;;4.40;;
10154;SDS011;5118;48.570;7.916;2023-08-31T05:23:30;8.37;;;4.40;;
10154;SDS011;5118;48.570;7.916;2023-08-31T05:25:59;7.60;;;4.90;;
10154;SDS011;5118;48.570;7.916;2023-08-31T05:28:28;9.13;;;4.70;;
10154;SDS011;5118;48.570;7.916;2023-08-31T05:35:07;5.73;;;4.80;;
10154;SDS011;5118;48.570;7.916;2023-08-31T05:37:58;7.30;;;4.60;;
10154;SDS011;5118;48.570;7.916;2023-08-31T05:40:30;4.90;;;4.40;;
10154;SDS011;5118;48.570;7.916;2023-08-31T05:43:46;4.70;;;4.30;;
10154;SDS011;5118;48.570;7.916;2023-08-31T05:46:33;5.30;;;4.80;;
10154;SDS011;5118;48.570;7.916;2023-08-31T05:49:02;6.80;;;4.90;;
10154;SDS011;5118;48.570;7.916;2023-08-31T05:51:40;5.83;;;4.70;;
10154;SDS011;5118;48.570;7.916;2023-08-31T05:54:18;5.87;;;4.50;;
10154;SDS011;5118;48.570;7.916;2023-08-31T05:57:03;5.80;;;4.57;;
10154;SDS011;5118;48.570;7.916;2023-08-31T05:59:34;5.20;;;4.70;;
10154;SDS011;5118;48.570;7.916;2023-08-31T06:02:05;7.33;;;4.67;;
10154;SDS011;5118;48.570;7.916;2023-08-31T06:04:38;5.13;;;4.60;;
10154;SDS011;5118;48.570;7.916;2023-08-31T06:07:07;8.57;;;5.10;;
10154;SDS011;5118;48.570;7.916;2023-08-31T06:09:36;6.40;;;4.53;;
10154;SDS011;5118;48.570;7.916;2023-08-31T06:12:07;5.90;;;4.17;;
10154;SDS011;5118;48.570;7.916;2023-08-31T06:14:36;7.27;;;4.70;;
10154;SDS011;5118;48.570;7.916;2023-08-31T06:17:05;5.53;;;4.90;;
10154;SDS011;5118;48.570;7.916;2023-08-31T06:19:35;6.43;;;4.90;;
10154;SDS011;5118;48.570;7.916;2023-08-31T06:22:09;6.23;;;4.97;;
10154;SDS011;5118;48.570;7.916;2023-08-31T06:24:39;5.60;;;5.03;;
10154;SDS011;5118;48.570;7.916;2023-08-31T06:27:12;5.30;;;4.80;;
10154;SDS011;5118;48.570;7.916;2023-08-31T06:30:02;7.93;;;4.97;;
10154;SDS011;5118;48.570;7.916;2023-08-31T06:32:35;6.60;;;4.87;;
10154;SDS011;5118;48.570;7.916;2023-08-31T06:35:04;8.00;;;5.03;;
10154;SDS011;5118;48.570;7.916;2023-08-31T06:37:33;4.90;;;4.10;;
10154;SDS011;5118;48.570;7.916;2023-08-31T06:40:50;7.03;;;4.20;;
10154;SDS011;5118;48.570;7.916;2023-08-31T06:43:22;4.87;;;3.97;;
10154;SDS011;5118;48.570;7.916;2023-08-31T06:45:53;4.30;;;3.80;;
10154;SDS011;5118;48.570;7.916;2023-08-31T06:48:33;5.47;;;3.87;;
10154;SDS011;5118;48.570;7.916;2023-08-31T06:51:01;5.60;;;3.93;;
10154;SDS011;5118;48.570;7.916;2023-08-31T06:53:31;6.95;;;4.40;;
10154;SDS011;5118;48.570;7.916;2023-08-31T06:56:00;6.63;;;4.20;;
10154;SDS011;5118;48.570;7.916;2023-08-31T06:58:34;8.17;;;4.17;;
10154;SDS011;5118;48.570;7.916;2023-08-31T07:01:05;5.63;;;4.33;;
10154;SDS011;5118;48.570;7.916;2023-08-31T07:03:34;6.07;;;4.00;;
10154;SDS011;5118;48.570;7.916;2023-08-31T07:06:03;6.10;;;4.07;;
10154;SDS011;5118;48.570;7.916;2023-08-31T07:08:31;6.03;;;4.65;;
10154;SDS011;5118;48.570;7.916;2023-08-31T07:11:00;6.90;;;4.70;;
10154;SDS011;5118;48.570;7.916;2023-08-31T07:13:28;5.63;;;4.67;;
10154;SDS011;5118;48.570;7.916;2023-08-31T07:15:58;5.70;;;4.15;;
10154;SDS011;5118;48.570;7.916;2023-08-31T07:18:27;5.27;;;3.90;;
10154;SDS011;5118;48.570;7.916;2023-08-31T07:20:56;5.80;;;4.33;;
10154;SDS011;5118;48.570;7.916;2023-08-31T07:23:24;9.03;;;4.20;;
10154;SDS011;5118;48.570;7.916;2023-08-31T07:25:56;6.55;;;3.97;;
10154;SDS011;5118;48.570;7.916;2023-08-31T07:28:26;5.45;;;3.83;;
10154;SDS011;5118;48.570;7.916;2023-08-31T07:31:02;5.17;;;3.67;;
10154;SDS011;5118;48.570;7.916;2023-08-31T07:33:32;4.32;;;3.70;;
10154;SDS011;5118;48.570;7.916;2023-08-31T07:36:03;5.60;;;3.80;;
10154;SDS011;5118;48.570;7.916;2023-08-31T07:38:33;5.60;;;3.93;;
10154;SDS011;5118;48.570;7.916;2023-08-31T07:41:01;5.32;;;3.40;;
10154;SDS011;5118;48.570;7.916;2023-08-31T07:43:31;4.60;;;3.33;;
10154;SDS011;5118;48.570;7.916;2023-08-31T07:45:59;3.50;;;3.20;;
10154;SDS011;5118;48.570;7.916;2023-08-31T07:48:29;7.18;;;3.30;;
10154;SDS011;5118;48.570;7.916;2023-08-31T07:50:57;5.03;;;3.47;;
10154;SDS011;5118;48.570;7.916;2023-08-31T07:53:25;3.08;;;2.78;;
10154;SDS011;5118;48.570;7.916;2023-08-31T07:55:56;4.35;;;3.30;;
10154;SDS011;5118;48.570;7.916;2023-08-31T07:58:24;4.60;;;3.17;;
10154;SDS011;5118;48.570;7.916;2023-08-31T08:00:53;3.95;;;2.88;;
10154;SDS011;5118;48.570;7.916;2023-08-31T08:03:23;3.55;;;2.80;;
10154;SDS011;5118;48.570;7.916;2023-08-31T08:05:53;4.15;;;2.63;;
10154;SDS011;5118;48.570;7.916;2023-08-31T08:08:23;5.63;;;2.85;;
10154;SDS011;5118;48.570;7.916;2023-08-31T08:10:52;6.95;;;3.13;;
10154;SDS011;5118;48.570;7.916;2023-08-31T08:13:20;4.40;;;2.90;;
10154;SDS011;5118;48.570;7.916;2023-08-31T08:15:49;7.13;;;2.90;;
10154;SDS011;5118;48.570;7.916;2023-08-31T08:18:17;4.80;;;2.60;;
10154;SDS011;5118;48.570;7.916;2023-08-31T08:20:47;3.63;;;2.63;;
10154;SDS011;5118;48.570;7.916;2023-08-31T08:23:17;3.25;;;2.40;;
10154;SDS011;5118;48.570;7.916;2023-08-31T08:25:46;4.43;;;2.53;;
10154;SDS011;5118;48.570;7.916;2023-08-31T08:28:14;5.75;;;2.85;;
10154;SDS011;5118;48.570;7.916;2023-08-31T08:30:42;4.72;;;2.55;;
10154;SDS011;5118;48.570;7.916;2023-08-31T08:33:11;3.13;;;2.75;;
10154;SDS011;5118;48.570;7.916;2023-08-31T08:35:40;3.53;;;2.53;;
10154;SDS011;5118;48.570;7.916;2023-08-31T08:38:08;3.72;;;2.50;;
10154;SDS011;5118;48.570;7.916;2023-08-31T08:40:40;5.15;;;2.53;;
10154;SDS011;5118;48.570;7.916;2023-08-31T08:43:08;3.28;;;2.60;;
10154;SDS011;5118;48.570;7.916;2023-08-31T08:45:39;4.63;;;2.60;;
10154;SDS011;5118;48.570;7.916;2023-08-31T08:48:08;3.42;;;2.38;;
10154;SDS011;5118;48.570;7.916;2023-08-31T08:50:37;6.28;;;3.03;;
10154;SDS011;5118;48.570;7.916;2023-08-31T08:53:05;3.92;;;2.30;;
10154;SDS011;5118;48.570;7.916;2023-08-31T08:55:33;5.25;;;2.70;;
10154;SDS011;5118;48.570;7.916;2023-08-31T08:58:03;3.72;;;2.40;;
10154;SDS011;5118;48.570;7.916;2023-08-31T09:00:32;4.20;;;2.40;;
10154;SDS011;5118;48.570;7.916;2023-08-31T09:03:00;3.85;;;2.40;;
10154;SDS011;5118;48.570;7.916;2023-08-31T09:05:30;4.25;;;2.50;;
10154;SDS011;5118;48.570;7.916;2023-08-31T09:08:03;3.42;;;2.35;;
10154;SDS011;5118;48.570;7.916;2023-08-31T09:10:34;4.72;;;2.55;;
10154;SDS011;5118;48.570;7.916;2023-08-31T09:13:08;4.15;;;2.67;;
10154;SDS011;5118;48.570;7.916;2023-08-31T09:15:43;3.35;;;2.22;;
10154;SDS011;5118;48.570;7.916;2023-08-31T09:18:15;4.35;;;2.33;;
10154;SDS011;5118;48.570;7.916;2023-08-31T09:20:45;5.90;;;2.75;;
10154;SDS011;5118;48.570;7.916;2023-08-31T09:23:14;5.10;;;2.60;;
10154;SDS011;5118;48.570;7.916;2023-08-31T09:25:44;4.32;;;2.17;;
10154;SDS011;5118;48.570;7.916;2023-08-31T09:28:16;3.53;;;2.50;;
10154;SDS011;5118;48.570;7.916;2023-08-31T09:30:48;3.13;;;2.83;;
10154;SDS011;5118;48.570;7.916;2023-08-31T09:33:19;6.13;;;2.70;;
10154;SDS011;5118;48.570;7.916;2023-08-31T09:35:49;3.58;;;2.35;;
10154;SDS011;5118;48.570;7.916;2023-08-31T09:38:18;5.35;;;2.70;;
10154;SDS011;5118;48.570;7.916;2023-08-31T09:40:47;3.20;;;2.65;;
10154;SDS011;5118;48.570;7.916;2023-08-31T09:43:20;5.55;;;2.40;;
10154;SDS011;5118;48.570;7.916;2023-08-31T09:45:50;4.80;;;2.58;;
10154;SDS011;5118;48.570;7.916;2023-08-31T09:48:20;6.65;;;2.33;;
10154;SDS011;5118;48.570;7.916;2023-08-31T09:50:50;4.10;;;2.35;;
10154;SDS011;5118;48.570;7.916;2023-08-31T09:53:19;3.92;;;2.38;;
10154;SDS011;5118;48.570;7.916;2023-08-31T09:55:49;3.53;;;2.10;;
10154;SDS011;5118;48.570;7.916;2023-08-31T09:58:22;2.63;;;2.10;;
10154;SDS011;5118;48.570;7.916;2023-08-31T10:00:51;3.78;;;2.20;;
10154;SDS011;5118;48.570;7.916;2023-08-31T10:03:20;4.38;;;2.33;;
10154;SDS011;5118;48.570;7.916;2023-08-31T10:05:50;4.00;;;2.10;;
10154;SDS011;5118;48.570;7.916;2023-08-31T10:08:18;4.90;;;2.40;;
10154;SDS011;5118;48.570;7.916;2023-08-31T10:10:47;4.45;;;2.40;;
10154;SDS011;5118;48.570;7.916;2023-08-31T10:13:15;3.85;;;2.20;;
10154;SDS011;5118;48.570;7.916;2023-08-31T10:15:47;3.72;;;2.20;;
10154;SDS011;5118;48.570;7.916;2023-08-31T10:18:17;3.00;;;2.40;;
10154;SDS011;5118;48.570;7.916;2023-08-31T10:20:46;3.45;;;2.40;;
10154;SDS011;5118;48.570;7.916;2023-08-31T10:23:14;3.72;;;2.15;;
10154;SDS011;5118;48.570;7.916;2023-08-31T10:26:02;3.28;;;2.20;;
10154;SDS011;5118;48.570;7.916;2023-08-31T10:28:38;4.07;;;2.03;;
10154;SDS011;5118;48.570;7.916;2023-08-31T10:31:10;3.40;;;2.25;;
10154;SDS011;5118;48.570;7.916;2023-08-31T10:33:44;3.70;;;2.22;;
10154;SDS011;5118;48.570;7.916;2023-08-31T10:36:14;3.40;;;1.92;;
10154;SDS011;5118;48.570;7.916;2023-08-31T10:38:44;3.83;;;2.28;;
10154;SDS011;5118;48.570;7.916;2023-08-31T10:41:17;3.17;;;2.30;;
10154;SDS011;5118;48.570;7.916;2023-08-31T10:43:49;5.25;;;2.60;;
10154;SDS011;5118;48.570;7.916;2023-08-31T10:46:30;4.25;;;2.50;;
10154;SDS011;5118;48.570;7.916;2023-08-31T10:48:59;3.58;;;2.13;;
10154;SDS011;5118;48.570;7.916;2023-08-31T10:51:30;3.28;;;2.40;;
10154;SDS011;5118;48.570;7.916;2023-08-31T10:54:05;3.67;;;2.20;;
10154;SDS011;5118;48.570;7.916;2023-08-31T10:59:43;5.75;;;2.75;;
10154;SDS011;5118;48.570;7.916;2023-08-31T11:02:30;4.20;;;2.30;;
10154;SDS011;5118;48.570;7.916;2023-08-31T11:05:02;3.40;;;2.20;;
10154;SDS011;5118;48.570;7.916;2023-08-31T11:07:34;3.15;;;2.30;;
10154;SDS011;5118;48.570;7.916;2023-08-31T11:10:08;3.60;;;2.13;;
10154;SDS011;5118;48.570;7.916;2023-08-31T11:12:38;2.33;;;1.90;;
10154;SDS011;5118;48.570;7.916;2023-08-31T11:15:07;4.28;;;2.35;;
10154;SDS011;5118;48.570;7.916;2023-08-31T11:17:37;4.75;;;2.42;;
10154;SDS011;5118;48.570;7.916;2023-08-31T11:20:07;3.10;;;2.30;;
10154;SDS011;5118;48.570;7.916;2023-08-31T11:22:40;6.25;;;2.40;;
10154;SDS011;5118;48.570;7.916;2023-08-31T11:25:09;3.42;;;2.30;;
10154;SDS011;5118;48.570;7.916;2023-08-31T11:27:40;5.25;;;2.28;;
10154;SDS011;5118;48.570;7.916;2023-08-31T11:30:12;4.07;;;2.20;;
10154;SDS011;5118;48.570;7.916;2023-08-31T11:32:47;3.03;;;2.10;;
10154;SDS011;5118;48.570;7.916;2023-08-31T11:35:16;5.75;;;2.35;;
10154;SDS011;5118;48.570;7.916;2023-08-31T11:37:45;5.00;;;2.05;;
10154;SDS011;5118;48.570;7.916;2023-08-31T11:40:18;8.32;;;2.50;;
10154;SDS011;5118;48.570;7.916;2023-08-31T11:42:47;3.60;;;2.30;;
10154;SDS011;5118;48.570;7.916;2023-08-31T11:45:16;2.88;;;2.17;;
10154;SDS011;5118;48.570;7.916;2023-08-31T11:47:47;3.25;;;2.28;;
10154;SDS011;5118;48.570;7.916;2023-08-31T11:50:16;4.65;;;2.20;;
10154;SDS011;5118;48.570;7.916;2023-08-31T11:52:46;4.50;;;2.35;;
10154;SDS011;5118;48.570;7.916;2023-08-31T11:55:15;3.63;;;2.20;;
10154;SDS011;5118;48.570;7.916;2023-08-31T11:57:48;5.10;;;2.30;;
10154;SDS011;5118;48.570;7.916;2023-08-31T12:00:18;3.88;;;2.20;;
10154;SDS011;5118;48.570;7.916;2023-08-31T12:02:55;5.03;;;2.10;;
10154;SDS011;5118;48.570;7.916;2023-08-31T12:05:25;3.38;;;2.25;;
10154;SDS011;5118;48.570;7.916;2023-08-31T12:07:54;4.20;;;2.20;;
10154;SDS011;5118;48.570;7.916;2023-08-31T12:10:23;4.80;;;2.60;;
10154;SDS011;5118;48.570;7.916;2023-08-31T12:12:52;3.60;;;2.38;;
10154;SDS011;5118;48.570;7.916;2023-08-31T12:15:23;6.00;;;2.65;;
10154;SDS011;5118;48.570;7.916;2023-08-31T12:17:59;4.68;;;2.20;;
10154;SDS011;5118;48.570;7.916;2023-08-31T12:20:34;3.33;;;2.50;;
10154;SDS011;5118;48.570;7.916;2023-08-31T12:23:11;3.28;;;2.10;;
10154;SDS011;5118;48.570;7.916;2023-08-31T12:25:45;4.32;;;2.30;;
10154;SDS011;5118;48.570;7.916;2023-08-31T12:28:16;4.93;;;2.15;;
10154;SDS011;5118;48.570;7.916;2023-08-31T12:30:46;3.80;;;2.10;;
10154;SDS011;5118;48.570;7.916;2023-08-31T12:33:17;3.13;;;2.20;;
10154;SDS011;5118;48.570;7.916;2023-08-31T12:35:47;3.42;;;2.40;;
10154;SDS011;5118;48.570;7.916;2023-08-31T12:38:15;4.75;;;2.30;;
10154;SDS011;5118;48.570;7.916;2023-08-31T12:40:44;4.20;;;2.40;;
10154;SDS011;5118;48.570;7.916;2023-08-31T12:43:12;2.92;;;2.20;;
10154;SDS011;5118;48.570;7.916;2023-08-31T12:45:43;3.35;;;2.30;;
10154;SDS011;5118;48.570;7.916;2023-08-31T12:48:12;4.10;;;2.25;;
10154;SDS011;5118;48.570;7.916;2023-08-31T12:50:42;4.22;;;2.50;;
10154;SDS011;5118;48.570;7.916;2023-08-31T12:53:10;4.68;;;2.33;;
10154;SDS011;5118;48.570;7.916;2023-08-31T12:55:39;6.28;;;2.28;;
10154;SDS011;5118;48.570;7.916;2023-08-31T12:58:08;4.82;;;2.50;;
10154;SDS011;5118;48.570;7.916;2023-08-31T13:00:36;3.90;;;2.33;;
10154;SDS011;5118;48.570;7.916;2023-08-31T13:03:05;4.95;;;2.63;;
10154;SDS011;5118;48.570;7.916;2023-08-31T13:05:38;5.88;;;2.70;;
10154;SDS011;5118;48.570;7.916;2023-08-31T13:08:09;3.72;;;2.50;;
10154;SDS011;5118;48.570;7.916;2023-08-31T13:10:38;4.32;;;2.38;;
10154;SDS011;5118;48.570;7.916;2023-08-31T13:13:07;5.95;;;2.47;;
10154;SDS011;5118;48.570;7.916;2023-08-31T13:15:36;5.47;;;2.75;;
10154;SDS011;5118;48.570;7.916;2023-08-31T13:18:04;6.75;;;2.72;;
10154;SDS011;5118;48.570;7.916;2023-08-31T13:20:33;5.53;;;2.70;;
10154;SDS011;5118;48.570;7.916;2023-08-31T13:23:02;3.97;;;2.47;;
10154;SDS011;5118;48.570;7.916;2023-08-31T13:25:33;4.70;;;2.50;;
10154;SDS011;5118;48.570;7.916;2023-08-31T13:28:02;4.45;;;2.38;;
10154;SDS011;5118;48.570;7.916;2023-08-31T13:30:31;3.63;;;2.20;;
10154;SDS011;5118;48.570;7.916;2023-08-31T13:33:00;4.18;;;2.35;;
10154;SDS011;5118;48.570;7.916;2023-08-31T13:35:31;6.57;;;2.67;;
10154;SDS011;5118;48.570;7.916;2023-08-31T13:37:59;4.85;;;2.70;;
10154;SDS011;5118;48.570;7.916;2023-08-31T13:40:29;4.35;;;2.53;;
10154;SDS011;5118;48.570;7.916;2023-08-31T13:42:59;5.97;;;2.70;;
10154;SDS011;5118;48.570;7.916;2023-08-31T13:45:30;6.45;;;2.50;;
10154;SDS011;5118;48.570;7.916;2023-08-31T13:47:59;4.50;;;2.50;;
10154;SDS011;5118;48.570;7.916;2023-08-31T13:50:28;5.35;;;2.38;;
10154;SDS011;5118;48.570;7.916;2023-08-31T13:52:56;4.05;;;2.50;;
10154;SDS011;5118;48.570;7.916;2023-08-31T13:55:25;5.03;;;2.45;;
10154;SDS011;5118;48.570;7.916;2023-08-31T13:57:54;3.38;;;2.28;;
10154;SDS011;5118;48.570;7.916;2023-08-31T14:00:23;5.10;;;2.53;;
10154;SDS011;5118;48.570;7.916;2023-08-31T14:03:01;5.38;;;2.70;;
10154;SDS011;5118;48.570;7.916;2023-08-31T14:05:32;5.72;;;2.88;;
10154;SDS011;5118;48.570;7.916;2023-08-31T14:08:01;4.95;;;2.60;;
10154;SDS011;5118;48.570;7.916;2023-08-31T14:10:31;7.13;;;2.83;;
10154;SDS011;5118;48.570;7.916;2023-08-31T14:13:00;4.25;;;2.50;;
10154;SDS011;5118;48.570;7.916;2023-08-31T14:15:30;4.82;;;2.70;;
10154;SDS011;5118;48.570;7.916;2023-08-31T14:17:59;7.05;;;2.67;;
10154;SDS011;5118;48.570;7.916;2023-08-31T14:20:28;5.13;;;3.00;;
10154;SDS011;5118;48.570;7.916;2023-08-31T14:22:57;6.93;;;2.70;;
10154;SDS011;5118;48.570;7.916;2023-08-31T14:25:25;5.18;;;2.45;;
10154;SDS011;5118;48.570;7.916;2023-08-31T14:27:54;6.03;;;2.53;;
10154;SDS011;5118;48.570;7.916;2023-08-31T14:30:22;5.18;;;2.83;;
10154;SDS011;5118;48.570;7.916;2023-08-31T14:32:52;5.85;;;2.50;;
10154;SDS011;5118;48.570;7.916;2023-08-31T14:35:21;5.32;;;2.70;;
10154;SDS011;5118;48.570;7.916;2023-08-31T14:37:49;8.30;;;2.80;;
10154;SDS011;5118;48.570;7.916;2023-08-31T14:40:18;5.28;;;2.50;;
10154;SDS011;5118;48.570;7.916;2023-08-31T14:42:47;4.63;;;2.63;;
10154;SDS011;5118;48.570;7.916;2023-08-31T14:45:15;5.30;;;2.78;;
10154;SDS011;5118;48.570;7.916;2023-08-31T14:47:44;5.13;;;2.70;;
10154;SDS011;5118;48.570;7.916;2023-08-31T14:50:14;3.72;;;2.47;;
10154;SDS011;5118;48.570;7.916;2023-08-31T14:52:42;4.72;;;2.70;;
10154;SDS011;5118;48.570;7.916;2023-08-31T14:55:11;5.38;;;2.60;;
10154;SDS011;5118;48.570;7.916;2023-08-31T14:57:39;4.22;;;2.60;;
10154;SDS011;5118;48.570;7.916;2023-08-31T15:00:10;4.43;;;2.50;;
10154;SDS011;5118;48.570;7.916;2023-08-31T15:02:39;6.43;;;2.85;;
10154;SDS011;5118;48.570;7.916;2023-08-31T15:05:08;6.00;;;3.00;;
10154;SDS011;5118;48.570;7.916;2023-08-31T15:07:39;6.47;;;3.00;;
10154;SDS011;5118;48.570;7.916;2023-08-31T15:10:08;6.63;;;2.80;;
10154;SDS011;5118;48.570;7.916;2023-08-31T15:12:37;5.43;;;2.72;;
10154;SDS011;5118;48.570;7.916;2023-08-31T15:15:06;4.47;;;2.92;;
10154;SDS011;5118;48.570;7.916;2023-08-31T15:17:34;5.13;;;2.50;;
10154;SDS011;5118;48.570;7.916;2023-08-31T15:20:04;4.72;;;2.63;;
10154;SDS011;5118;48.570;7.916;2023-08-31T15:22:35;7.63;;;2.80;;
10154;SDS011;5118;48.570;7.916;2023-08-31T15:25:05;7.13;;;3.00;;
10154;SDS011;5118;48.570;7.916;2023-08-31T15:27:34;7.18;;;3.00;;
10154;SDS011;5118;48.570;7.916;2023-08-31T15:30:03;4.55;;;2.88;;
10154;SDS011;5118;48.570;7.916;2023-08-31T15:32:35;5.05;;;2.90;;
10154;SDS011;5118;48.570;7.916;2023-08-31T15:35:04;6.55;;;3.35;;
10154;SDS011;5118;48.570;7.916;2023-08-31T15:37:33;4.65;;;2.78;;
10154;SDS011;5118;48.570;7.916;2023-08-31T15:40:01;5.50;;;2.67;;
10154;SDS011;5118;48.570;7.916;2023-08-31T15:42:32;5.18;;;2.60;;
10154;SDS011;5118;48.570;7.916;2023-08-31T15:45:01;4.18;;;2.63;;
10154;SDS011;5118;48.570;7.916;2023-08-31T15:47:29;4.07;;;2.30;;